createdAt,value
2023-03-23T00:00:19.586Z,100.00
2023-03-23T00:03:38.543Z,100.00
2023-03-23T00:06:55.619Z,100.00
2023-03-23T00:10:14.628Z,100.00
2023-03-23T00:13:31.598Z,100.00
2023-03-23T00:16:49.172Z,100.00
2023-03-23T00:20:06.952Z,100.00
2023-03-23T00:23:25.063Z,100.00
2023-03-23T00:26:48.276Z,100.00
2023-03-23T00:30:01.560Z,100.00
2023-03-23T00:33:19.041Z,100.00
2023-03-23T00:36:37.044Z,100.00
2023-03-23T00:39:55.606Z,100.00
2023-03-23T00:43:14.024Z,100.00
2023-03-23T00:46:31.622Z,100.00
2023-03-23T00:49:48.403Z,100.00
2023-03-23T00:53:05.446Z,100.00
2023-03-23T00:56:22.345Z,100.00
2023-03-23T00:59:39.438Z,100.00
2023-03-23T01:02:58.979Z,100.00
2023-03-23T01:06:20.523Z,100.00
2023-03-23T01:09:38.117Z,100.00
2023-03-23T01:12:55.643Z,100.00
2023-03-23T01:16:13.208Z,100.00
2023-03-23T01:19:30.134Z,100.00
2023-03-23T01:22:47.042Z,100.00
2023-03-23T01:26:03.286Z,100.00
2023-03-23T01:29:19.910Z,100.00
2023-03-23T01:32:36.351Z,100.00
2023-03-23T01:35:53.162Z,100.00
2023-03-23T01:39:10.763Z,100.00
2023-03-23T01:42:29.214Z,100.00
2023-03-23T01:45:48.551Z,100.00
2023-03-23T01:49:10.620Z,100.00
2023-03-23T01:52:31.814Z,100.00
2023-03-23T01:55:54.006Z,100.00
2023-03-23T01:59:10.292Z,100.00
2023-03-23T02:02:30.944Z,100.00
2023-03-23T02:05:50.068Z,100.00
2023-03-23T02:09:10.560Z,100.00
2023-03-23T02:12:27.958Z,100.00
2023-03-23T02:15:59.332Z,100.00
2023-03-23T02:19:56.152Z,100.00
2023-03-23T02:23:37.585Z,100.00
2023-03-23T02:27:02.536Z,100.00
2023-03-23T02:30:52.821Z,100.00
2023-03-23T02:34:13.650Z,100.00
2023-03-23T02:37:35.854Z,100.00
2023-03-23T02:40:57.218Z,100.00
2023-03-23T02:44:19.531Z,100.00
2023-03-23T02:47:36.351Z,100.00
2023-03-23T02:50:56.381Z,100.00
2023-03-23T02:54:16.713Z,100.00
2023-03-23T02:57:40.578Z,100.00
2023-03-23T03:00:55.486Z,100.00
2023-03-23T03:04:17.739Z,100.00
2023-03-23T03:08:05.799Z,100.00
2023-03-23T03:11:26.986Z,100.00
2023-03-23T03:14:48.189Z,100.00
2023-03-23T03:18:13.247Z,100.00
2023-03-23T03:21:34.079Z,100.00
2023-03-23T03:24:52.661Z,100.00
2023-03-23T03:28:10.853Z,100.00
2023-03-23T03:31:33.622Z,100.00
2023-03-23T03:34:52.128Z,100.00
2023-03-23T03:38:15.864Z,100.00
2023-03-23T03:41:33.102Z,100.00
2023-03-23T03:44:49.414Z,100.00
2023-03-23T03:48:06.920Z,100.00
2023-03-23T03:51:23.327Z,100.00
2023-03-23T03:54:39.713Z,100.00
2023-03-23T03:57:56.857Z,100.00
2023-03-23T04:01:23.613Z,100.00
2023-03-23T04:04:40.847Z,100.00
2023-03-23T04:08:09.401Z,100.00
2023-03-23T04:11:32.556Z,100.00
2023-03-23T04:14:40.587Z,100.00
2023-03-23T04:17:58.852Z,100.00
2023-03-23T04:21:16.177Z,100.00
2023-03-23T04:24:56.154Z,100.00
2023-03-23T04:28:01.546Z,100.00
2023-03-23T04:31:19.331Z,100.00
2023-03-23T04:34:38.534Z,100.00
2023-03-23T04:37:56.230Z,100.00
2023-03-23T04:41:13.041Z,100.00
2023-03-23T04:44:31.199Z,100.00
2023-03-23T04:47:54.219Z,100.00
2023-03-23T04:51:14.038Z,100.00
2023-03-23T04:54:31.590Z,100.00
2023-03-23T04:57:49.471Z,100.00
2023-03-23T05:01:24.195Z,100.00
2023-03-23T05:04:43.462Z,100.00
2023-03-23T05:08:04.279Z,100.00
2023-03-23T05:11:22.369Z,100.00
2023-03-23T05:14:38.808Z,100.00
2023-03-23T05:17:57.797Z,100.00
2023-03-23T05:21:15.518Z,100.00
2023-03-23T05:24:34.491Z,100.00
2023-03-23T05:27:55.005Z,100.00
2023-03-23T05:31:28.309Z,100.00
2023-03-23T05:34:45.219Z,100.00
2023-03-23T05:41:18.542Z,100.00
2023-03-23T05:44:35.673Z,100.00
2023-03-23T05:47:53.761Z,100.00
2023-03-23T05:51:11.781Z,100.00
2023-03-23T05:54:29.784Z,100.00
2023-03-23T05:57:46.659Z,100.00
2023-03-23T06:01:05.397Z,100.00
2023-03-23T06:04:22.916Z,100.00
2023-03-23T06:07:40.852Z,100.00
2023-03-23T06:10:57.352Z,100.00
2023-03-23T06:14:14.605Z,100.00
2023-03-23T06:17:30.952Z,100.00
2023-03-23T06:20:48.078Z,100.00
2023-03-23T06:24:06.764Z,100.00
2023-03-23T06:27:23.598Z,100.00
2023-03-23T06:30:40.276Z,100.00
2023-03-23T06:33:58.555Z,100.00
2023-03-23T06:37:14.998Z,100.00
2023-03-23T06:40:43.315Z,100.00
2023-03-23T06:43:59.878Z,100.00
2023-03-23T06:47:17.836Z,100.00
2023-03-23T06:50:38.955Z,100.00
2023-03-23T06:53:56.225Z,100.00
2023-03-23T06:57:14.210Z,100.00
2023-03-23T07:00:32.051Z,100.00
2023-03-23T07:03:48.510Z,100.00
2023-03-23T07:07:06.965Z,100.00
2023-03-23T07:10:25.769Z,100.00
2023-03-23T07:13:42.576Z,100.00
2023-03-23T07:16:59.873Z,100.00
2023-03-23T07:20:20.060Z,100.00
2023-03-23T07:23:37.817Z,100.00
2023-03-23T07:26:53.531Z,100.00
2023-03-23T07:30:10.417Z,100.00
2023-03-23T07:33:28.124Z,100.00
2023-03-23T07:36:45.958Z,100.00
2023-03-23T07:40:04.738Z,100.00
2023-03-23T07:43:22.198Z,100.00
2023-03-23T07:46:52.992Z,100.00
2023-03-23T07:50:12.099Z,100.00
2023-03-23T07:53:30.627Z,100.00
2023-03-23T07:56:50.583Z,100.00
2023-03-23T08:00:14.383Z,100.00
2023-03-23T08:03:33.971Z,100.00
2023-03-23T08:07:13.081Z,100.00
2023-03-23T08:10:35.864Z,100.00
2023-03-23T08:13:58.309Z,100.00
2023-03-23T08:17:26.255Z,100.00
2023-03-23T08:21:01.512Z,100.00
2023-03-23T08:24:41.493Z,100.00
2023-03-23T08:28:11.162Z,100.00
2023-03-23T08:31:50.505Z,100.00
2023-03-23T09:09:37.264Z,100.00
2023-03-23T09:12:56.242Z,100.00
2023-03-23T09:16:16.459Z,100.00
2023-03-23T09:19:32.850Z,100.00
2023-03-23T09:22:52.116Z,100.00
2023-03-23T09:26:11.496Z,100.00
2023-03-23T09:29:28.935Z,100.00
2023-03-23T09:32:47.142Z,100.00
2023-03-23T09:36:04.219Z,100.00
2023-03-23T09:39:22.809Z,100.00
2023-03-23T09:43:06.060Z,100.00
2023-03-23T09:46:42.130Z,100.00
2023-03-23T09:50:04.253Z,100.00
2023-03-23T09:53:26.521Z,100.00
2023-03-23T09:56:45.575Z,100.00
2023-03-23T10:00:08.456Z,100.00
2023-03-23T10:03:35.348Z,100.00
2023-03-23T10:06:52.846Z,100.00
2023-03-23T10:10:15.601Z,100.00
2023-03-23T10:13:43.107Z,100.00
2023-03-23T10:17:07.479Z,100.00
2023-03-23T10:20:38.949Z,100.00
2023-03-23T10:24:10.886Z,100.00
2023-03-23T10:27:38.147Z,100.00
2023-03-23T10:30:58.895Z,100.00
2023-03-23T10:34:21.210Z,100.00
2023-03-23T10:37:42.764Z,100.00
2023-03-23T10:41:03.608Z,99.58
2023-03-23T10:44:27.425Z,99.66
2023-03-23T10:47:47.855Z,100.00
2023-03-23T10:51:10.213Z,100.00
2023-03-23T10:54:38.430Z,96.88
2023-03-23T10:58:08.053Z,99.60
2023-03-23T11:01:26.954Z,98.69
2023-03-23T11:04:43.552Z,99.37
2023-03-23T11:08:04.095Z,99.78
2023-03-23T11:11:24.858Z,96.39
2023-03-23T11:14:44.348Z,95.00
2023-03-23T11:18:12.171Z,97.32
2023-03-23T11:21:30.373Z,95.95
2023-03-23T11:24:53.422Z,95.23
2023-03-23T11:28:11.425Z,96.78
2023-03-23T11:31:34.121Z,94.12
2023-03-23T11:34:57.845Z,94.15
2023-03-23T11:38:18.691Z,94.51
2023-03-23T11:41:38.958Z,96.78
2023-03-23T11:44:55.858Z,96.13
2023-03-23T11:48:22.226Z,98.79
2023-03-23T11:51:46.286Z,96.81
2023-03-23T11:55:08.776Z,98.23
2023-03-23T11:58:29.576Z,97.06
2023-03-23T12:02:16.858Z,99.74
2023-03-23T12:05:49.759Z,95.85
2023-03-23T12:09:18.232Z,97.70
2023-03-23T12:12:41.106Z,97.75
2023-03-23T12:16:03.761Z,99.37
2023-03-23T12:19:28.395Z,98.03
2023-03-23T12:23:02.903Z,100.00
2023-03-23T12:26:28.159Z,99.46
2023-03-23T12:30:15.697Z,99.32
2023-03-23T12:33:46.137Z,99.70
2023-03-23T12:37:14.938Z,100.00
2023-03-23T12:40:51.779Z,99.37
2023-03-23T12:44:14.865Z,99.80
2023-03-23T12:47:46.125Z,100.00
2023-03-23T12:51:19.987Z,100.00
2023-03-23T12:54:41.549Z,100.00
2023-03-23T12:58:03.581Z,100.00
2023-03-23T13:01:25.189Z,100.00
2023-03-23T13:04:49.589Z,100.00
2023-03-23T13:08:10.663Z,100.00
2023-03-23T13:11:32.217Z,100.00
2023-03-23T13:14:55.982Z,100.00
2023-03-23T13:18:18.660Z,100.00
2023-03-23T13:21:39.637Z,100.00
2023-03-23T13:25:02.634Z,100.00
2023-03-23T13:28:30.489Z,100.00
2023-03-23T13:31:51.800Z,100.00
2023-03-23T13:35:12.150Z,100.00
2023-03-23T13:38:34.842Z,100.00
2023-03-23T13:42:11.233Z,100.00
2023-03-23T13:45:46.047Z,100.00
2023-03-23T13:49:27.867Z,100.00
2023-03-23T13:53:04.929Z,100.00
2023-03-23T13:56:30.828Z,100.00
2023-03-23T14:00:04.203Z,100.00
2023-03-23T14:03:30.827Z,100.00
2023-03-23T14:06:50.128Z,100.00
2023-03-23T14:10:21.954Z,100.00
2023-03-23T14:13:48.589Z,100.00
2023-03-23T14:17:23.942Z,100.00
2023-03-23T14:20:45.709Z,100.00
2023-03-23T14:24:02.284Z,100.00
2023-03-23T14:27:23.890Z,100.00
2023-03-23T14:30:45.473Z,100.00
2023-03-23T14:34:07.890Z,100.00
2023-03-23T14:37:25.434Z,100.00
2023-03-23T14:40:43.986Z,100.00
2023-03-23T14:44:01.648Z,100.00
2023-03-23T14:47:27.865Z,100.00
2023-03-23T14:50:49.970Z,100.00
2023-03-23T14:54:07.115Z,100.00
2023-03-23T14:57:26.267Z,100.00
2023-03-23T15:00:46.915Z,100.00
2023-03-23T15:04:09.450Z,100.00
2023-03-23T15:07:27.336Z,100.00
2023-03-23T15:10:43.846Z,100.00
2023-03-23T15:14:05.821Z,100.00
2023-03-23T15:17:29.519Z,100.00
2023-03-23T15:20:58.310Z,100.00
2023-03-23T15:24:33.140Z,100.00
2023-03-23T15:27:57.708Z,100.00
2023-03-23T15:31:15.690Z,100.00
2023-03-23T15:34:40.434Z,100.00
2023-03-23T15:37:59.843Z,100.00
2023-03-23T15:41:29.778Z,100.00
2023-03-23T15:44:46.256Z,100.00
2023-03-23T15:48:04.455Z,100.00
2023-03-23T15:51:21.325Z,100.00
2023-03-23T15:54:40.006Z,100.00
2023-03-23T15:57:56.540Z,100.00
2023-03-23T16:01:19.018Z,100.00
2023-03-23T16:04:35.604Z,100.00
2023-03-23T16:07:52.805Z,100.00
2023-03-23T16:11:09.198Z,100.00
2023-03-23T16:14:25.560Z,100.00
2023-03-23T16:17:41.865Z,100.00
2023-03-23T16:20:58.790Z,100.00
2023-03-23T16:24:17.393Z,100.00
2023-03-23T16:27:36.057Z,100.00
2023-03-23T16:30:53.173Z,100.00
2023-03-23T16:34:09.733Z,100.00
2023-03-23T16:37:26.172Z,100.00
2023-03-23T16:40:43.199Z,100.00
2023-03-23T16:43:59.926Z,100.00
2023-03-23T16:47:16.545Z,100.00
2023-03-23T16:50:33.139Z,100.00
2023-03-23T16:53:49.842Z,100.00
2023-03-23T16:57:07.472Z,100.00
2023-03-23T17:00:29.212Z,100.00
2023-03-23T17:03:50.737Z,100.00
2023-03-23T17:07:09.637Z,100.00
2023-03-23T17:10:27.900Z,100.00
2023-03-23T17:13:44.460Z,100.00
2023-03-23T17:17:06.009Z,100.00
2023-03-23T17:20:25.424Z,100.00
2023-03-23T17:23:53.513Z,100.00
2023-03-23T17:27:10.869Z,100.00
2023-03-23T17:30:29.266Z,100.00
2023-03-23T17:33:46.841Z,100.00
2023-03-23T17:37:03.481Z,100.00
2023-03-23T17:40:22.624Z,100.00
2023-03-23T17:43:41.102Z,100.00
2023-03-23T17:46:57.662Z,100.00
2023-03-23T17:50:16.434Z,100.00
2023-03-23T17:53:33.077Z,100.00
2023-03-23T17:56:51.012Z,100.00
2023-03-23T18:00:11.113Z,100.00
2023-03-23T18:03:29.073Z,100.00
2023-03-23T18:06:49.859Z,100.00
2023-03-23T18:10:11.827Z,100.00
2023-03-23T18:13:28.959Z,100.00
2023-03-23T18:16:46.143Z,100.00
2023-03-23T18:20:03.034Z,100.00
2023-03-23T18:23:19.758Z,100.00
2023-03-23T18:26:36.801Z,100.00
2023-03-23T18:29:53.968Z,100.00
2023-03-23T18:33:10.556Z,100.00
2023-03-23T18:36:40.113Z,100.00
2023-03-23T18:40:31.703Z,100.00
2023-03-23T18:43:48.466Z,100.00
2023-03-23T18:47:05.103Z,100.00
2023-03-23T18:50:21.914Z,100.00
2023-03-23T18:53:40.117Z,100.00
2023-03-23T18:57:00.245Z,100.00
2023-03-23T19:00:17.572Z,100.00
2023-03-23T19:03:34.854Z,100.00
2023-03-23T19:06:55.875Z,100.00
2023-03-23T19:10:25.513Z,100.00
2023-03-23T19:14:06.519Z,100.00
2023-03-23T19:17:53.674Z,100.00
2023-03-23T19:21:31.388Z,100.00
2023-03-23T19:25:01.355Z,100.00
2023-03-23T19:29:05.524Z,100.00
2023-03-23T19:31:53.709Z,100.00
2023-03-23T19:35:10.572Z,100.00
2023-03-23T19:38:28.051Z,100.00
2023-03-23T19:41:45.917Z,100.00
2023-03-23T19:45:03.436Z,100.00
2023-03-23T19:48:20.771Z,100.00
2023-03-23T19:51:38.059Z,100.00
2023-03-23T19:54:54.945Z,100.00
2023-03-23T19:58:11.373Z,100.00
2023-03-23T20:01:29.218Z,100.00
2023-03-23T20:04:47.827Z,100.00
2023-03-23T20:08:04.998Z,100.00
2023-03-23T20:11:24.916Z,100.00
2023-03-23T20:14:43.470Z,100.00
2023-03-23T20:18:00.334Z,100.00
2023-03-23T20:21:20.402Z,100.00
2023-03-23T20:24:38.357Z,100.00
2023-03-23T20:27:55.383Z,100.00
2023-03-23T20:31:18.875Z,100.00
2023-03-23T20:34:34.284Z,100.00
2023-03-23T20:37:56.053Z,100.00
2023-03-23T20:41:19.193Z,100.00
2023-03-23T20:44:37.099Z,100.00
2023-03-23T20:47:55.250Z,100.00
2023-03-23T20:51:14.323Z,100.00
2023-03-23T20:54:31.081Z,100.00
2023-03-23T20:57:47.531Z,100.00
2023-03-23T21:01:05.633Z,100.00
2023-03-23T21:04:28.117Z,100.00
2023-03-23T21:07:44.811Z,100.00
2023-03-23T21:11:02.056Z,100.00
2023-03-23T21:14:19.335Z,100.00
2023-03-23T21:17:35.883Z,100.00
2023-03-23T21:20:52.905Z,100.00
2023-03-23T21:24:09.908Z,100.00
2023-03-23T21:27:26.725Z,100.00
2023-03-23T21:30:45.237Z,100.00
2023-03-23T21:34:01.852Z,100.00
2023-03-23T21:37:18.683Z,100.00
2023-03-23T21:40:36.583Z,100.00
2023-03-23T21:43:53.145Z,100.00
2023-03-23T21:47:10.139Z,100.00
2023-03-23T21:50:26.799Z,100.00
2023-03-23T21:53:44.791Z,100.00
2023-03-23T21:57:01.349Z,100.00
2023-03-23T22:00:21.226Z,100.00
2023-03-23T22:03:39.953Z,100.00
2023-03-23T22:06:56.872Z,100.00
2023-03-23T22:10:15.466Z,100.00
2023-03-23T22:13:32.550Z,100.00
2023-03-23T22:16:49.047Z,100.00
2023-03-23T22:20:06.539Z,100.00
2023-03-23T22:23:22.917Z,100.00
2023-03-23T22:26:40.312Z,100.00
2023-03-23T22:29:57.490Z,100.00
2023-03-23T22:33:14.030Z,100.00
2023-03-23T22:36:32.079Z,100.00
2023-03-23T22:39:49.964Z,100.00
2023-03-23T22:43:06.457Z,100.00
2023-03-23T22:46:23.984Z,100.00
2023-03-23T22:49:40.487Z,100.00
2023-03-23T22:52:57.027Z,100.00
2023-03-23T22:56:16.347Z,100.00
2023-03-23T22:59:30.662Z,100.00
2023-03-23T23:02:47.173Z,100.00
2023-03-23T23:06:05.635Z,100.00
2023-03-23T23:09:23.221Z,100.00
2023-03-23T23:12:42.310Z,100.00
2023-03-23T23:16:02.557Z,100.00
2023-03-23T23:19:19.001Z,100.00
2023-03-23T23:22:35.411Z,100.00
2023-03-23T23:25:52.370Z,100.00
2023-03-23T23:29:09.002Z,100.00
2023-03-23T23:32:26.579Z,100.00
2023-03-23T23:35:43.383Z,100.00
2023-03-23T23:38:59.874Z,100.00
2023-03-23T23:42:16.562Z,100.00
2023-03-23T23:45:34.863Z,100.00
2023-03-23T23:48:52.152Z,100.00
2023-03-23T23:52:09.570Z,100.00
2023-03-23T23:55:27.794Z,100.00
2023-03-23T23:58:41.920Z,100.00
